Conde, Brazil
Current Conditions -  °F | °C
As of 10:00 AM on Saturday 20 Dec 2014 (Local Time) from SBJP Reporting Station
Broken Clouds Broken Clouds  
Wind Chill: 84°   Ceiling: 3000
Heat Index: 87°   Visibility: 6mi
Dew Point: 68°   Wind: 12mph
Humidity: 58%   Direction: 90°E
Pressure: 29.97"   Gusts: NA
Location:  7.26°S, 34.91°W
Report Text: SBJP 201300Z 09010KT 9999 BKN030 29/20 Q1015
Loading
Personal Weather Stations






























Interactive Weather Map New forecast layout! Learn more

10-Day Weather Forecast

Advertisements
Track Severe Weather on mobile